<?xml version="1.0" encoding="utf-8"?>
<gpx xmlns:xsi="http://www.w3.org/2001/XMLSchema-instance" xmlns:xsd="http://www.w3.org/2001/XMLSchema" version="1.1" creator="Shapelink.com" xmlns="http://www.topografix.com/GPX/1/1" xmlns:gpxtpx="http://www.garmin.com/xmlschemas/TrackPointExtension/v1">
  <metadata>
    <name>Gåing 4.99 km, 2012-02-20</name>
    <desc></desc>
    <author><name>Mikael Blom</name></author> 
    <time>2012-02-20T16:22:35Z</time>
  </metadata>
  <trk>
    <name>Gåing 4.99 km, 2012-02-20</name>
    <trkseg>
      <trkpt lat="59.9790209" lon="17.7392396">
        <ele>41.474</ele>
        <time>2012-02-20T16:22:35Z</time>
      </trkpt>
      <trkpt lat="59.97905" lon="17.7391834">
        <ele>40.9934</ele>
        <time>2012-02-20T16:22:38Z</time>
      </trkpt>
      <trkpt lat="59.9791664" lon="17.7391379">
        <ele>38.5901</ele>
        <time>2012-02-20T16:22:46Z</time>
      </trkpt>
      <trkpt lat="59.979275" lon="17.7390568">
        <ele>34.7449</ele>
        <time>2012-02-20T16:22:55Z</time>
      </trkpt>
      <trkpt lat="59.9793845" lon="17.7389548">
        <ele>35.2255</ele>
        <time>2012-02-20T16:23:04Z</time>
      </trkpt>
      <trkpt lat="59.9794525" lon="17.7389214">
        <ele>34.7449</ele>
        <time>2012-02-20T16:23:10Z</time>
      </trkpt>
      <trkpt lat="59.9795283" lon="17.7388892">
        <ele>34.7449</ele>
        <time>2012-02-20T16:23:16Z</time>
      </trkpt>
      <trkpt lat="59.97961" lon="17.7388866">
        <ele>34.7449</ele>
        <time>2012-02-20T16:23:22Z</time>
      </trkpt>
      <trkpt lat="59.9797182" lon="17.7388063">
        <ele>35.2255</ele>
        <time>2012-02-20T16:23:29Z</time>
      </trkpt>
      <trkpt lat="59.9797997" lon="17.7387515">
        <ele>35.7061</ele>
        <time>2012-02-20T16:23:35Z</time>
      </trkpt>
      <trkpt lat="59.9798639" lon="17.7387353">
        <ele>38.5901</ele>
        <time>2012-02-20T16:23:39Z</time>
      </trkpt>
      <trkpt lat="59.9799484" lon="17.7387149">
        <ele>42.4354</ele>
        <time>2012-02-20T16:23:44Z</time>
      </trkpt>
      <trkpt lat="59.9800496" lon="17.7387224">
        <ele>45.7999</ele>
        <time>2012-02-20T16:23:50Z</time>
      </trkpt>
      <trkpt lat="59.980138" lon="17.7387839">
        <ele>50.6066</ele>
        <time>2012-02-20T16:23:55Z</time>
      </trkpt>
      <trkpt lat="59.9802482" lon="17.7388093">
        <ele>52.5292</ele>
        <time>2012-02-20T16:24:01Z</time>
      </trkpt>
      <trkpt lat="59.9803574" lon="17.7387771">
        <ele>45.3192</ele>
        <time>2012-02-20T16:24:08Z</time>
      </trkpt>
      <trkpt lat="59.9804056" lon="17.7387436">
        <ele>44.358</ele>
        <time>2012-02-20T16:24:12Z</time>
      </trkpt>
      <trkpt lat="59.980473" lon="17.7387399">
        <ele>41.9547</ele>
        <time>2012-02-20T16:24:17Z</time>
      </trkpt>
      <trkpt lat="59.9806103" lon="17.7387115">
        <ele>40.0321</ele>
        <time>2012-02-20T16:24:26Z</time>
      </trkpt>
      <trkpt lat="59.9806834" lon="17.7387077">
        <ele>40.5128</ele>
        <time>2012-02-20T16:24:31Z</time>
      </trkpt>
      <trkpt lat="59.9807728" lon="17.7386534">
        <ele>40.9934</ele>
        <time>2012-02-20T16:24:37Z</time>
      </trkpt>
      <trkpt lat="59.9807991" lon="17.7386483">
        <ele>40.9934</ele>
        <time>2012-02-20T16:24:39Z</time>
      </trkpt>
      <trkpt lat="59.9808982" lon="17.7386106">
        <ele>41.9547</ele>
        <time>2012-02-20T16:24:45Z</time>
      </trkpt>
      <trkpt lat="59.9809977" lon="17.7386048">
        <ele>46.7612</ele>
        <time>2012-02-20T16:24:51Z</time>
      </trkpt>
      <trkpt lat="59.9810682" lon="17.7385883">
        <ele>47.7225</ele>
        <time>2012-02-20T16:24:56Z</time>
      </trkpt>
      <trkpt lat="59.9811349" lon="17.7385509">
        <ele>44.358</ele>
        <time>2012-02-20T16:25:02Z</time>
      </trkpt>
      <trkpt lat="59.9812091" lon="17.7385214">
        <ele>44.358</ele>
        <time>2012-02-20T16:25:07Z</time>
      </trkpt>
      <trkpt lat="59.9812935" lon="17.7384943">
        <ele>42.4354</ele>
        <time>2012-02-20T16:25:12Z</time>
      </trkpt>
      <trkpt lat="59.9813415" lon="17.7384882">
        <ele>40.9934</ele>
        <time>2012-02-20T16:25:15Z</time>
      </trkpt>
      <trkpt lat="59.9814242" lon="17.7384483">
        <ele>43.3966</ele>
        <time>2012-02-20T16:25:20Z</time>
      </trkpt>
      <trkpt lat="59.9815608" lon="17.7384259">
        <ele>46.2806</ele>
        <time>2012-02-20T16:25:28Z</time>
      </trkpt>
      <trkpt lat="59.9816317" lon="17.7383665">
        <ele>47.7225</ele>
        <time>2012-02-20T16:25:33Z</time>
      </trkpt>
      <trkpt lat="59.9817022" lon="17.7383455">
        <ele>47.2418</ele>
        <time>2012-02-20T16:25:37Z</time>
      </trkpt>
      <trkpt lat="59.9818042" lon="17.7383198">
        <ele>48.2034</ele>
        <time>2012-02-20T16:25:43Z</time>
      </trkpt>
      <trkpt lat="59.9818629" lon="17.738311">
        <ele>48.2034</ele>
        <time>2012-02-20T16:25:47Z</time>
      </trkpt>
      <trkpt lat="59.981983" lon="17.7382427">
        <ele>48.684</ele>
        <time>2012-02-20T16:25:55Z</time>
      </trkpt>
      <trkpt lat="59.9820095" lon="17.7382339">
        <ele>48.684</ele>
        <time>2012-02-20T16:25:57Z</time>
      </trkpt>
      <trkpt lat="59.9820945" lon="17.7382112">
        <ele>48.2034</ele>
        <time>2012-02-20T16:26:03Z</time>
      </trkpt>
      <trkpt lat="59.9821677" lon="17.7381503">
        <ele>48.2034</ele>
        <time>2012-02-20T16:26:08Z</time>
      </trkpt>
      <trkpt lat="59.9822454" lon="17.738081">
        <ele>43.8773</ele>
        <time>2012-02-20T16:26:14Z</time>
      </trkpt>
      <trkpt lat="59.9823317" lon="17.7380412">
        <ele>45.3192</ele>
        <time>2012-02-20T16:26:20Z</time>
      </trkpt>
      <trkpt lat="59.9824093" lon="17.7380282">
        <ele>44.358</ele>
        <time>2012-02-20T16:26:25Z</time>
      </trkpt>
      <trkpt lat="59.9824882" lon="17.7380567">
        <ele>46.2806</ele>
        <time>2012-02-20T16:26:30Z</time>
      </trkpt>
      <trkpt lat="59.9825619" lon="17.7380633">
        <ele>47.2418</ele>
        <time>2012-02-20T16:26:35Z</time>
      </trkpt>
      <trkpt lat="59.9827" lon="17.7380599">
        <ele>49.6453</ele>
        <time>2012-02-20T16:26:43Z</time>
      </trkpt>
      <trkpt lat="59.9827876" lon="17.7380946">
        <ele>49.6453</ele>
        <time>2012-02-20T16:26:48Z</time>
      </trkpt>
      <trkpt lat="59.9829007" lon="17.7381275">
        <ele>48.684</ele>
        <time>2012-02-20T16:26:55Z</time>
      </trkpt>
      <trkpt lat="59.982961" lon="17.7381418">
        <ele>47.7225</ele>
        <time>2012-02-20T16:26:59Z</time>
      </trkpt>
      <trkpt lat="59.9830775" lon="17.7381091">
        <ele>45.3192</ele>
        <time>2012-02-20T16:27:07Z</time>
      </trkpt>
      <trkpt lat="59.9831413" lon="17.7381449">
        <ele>43.3966</ele>
        <time>2012-02-20T16:27:11Z</time>
      </trkpt>
      <trkpt lat="59.9832775" lon="17.7380991">
        <ele>39.5513</ele>
        <time>2012-02-20T16:27:20Z</time>
      </trkpt>
      <trkpt lat="59.9833594" lon="17.7380655">
        <ele>40.0321</ele>
        <time>2012-02-20T16:27:25Z</time>
      </trkpt>
      <trkpt lat="59.9834483" lon="17.7380259">
        <ele>40.9934</ele>
        <time>2012-02-20T16:27:31Z</time>
      </trkpt>
      <trkpt lat="59.9835651" lon="17.7380044">
        <ele>39.0707</ele>
        <time>2012-02-20T16:27:38Z</time>
      </trkpt>
      <trkpt lat="59.983654" lon="17.7379779">
        <ele>39.0707</ele>
        <time>2012-02-20T16:27:44Z</time>
      </trkpt>
      <trkpt lat="59.9837503" lon="17.7379619">
        <ele>38.1094</ele>
        <time>2012-02-20T16:27:50Z</time>
      </trkpt>
      <trkpt lat="59.9838269" lon="17.737949">
        <ele>39.0707</ele>
        <time>2012-02-20T16:27:55Z</time>
      </trkpt>
      <trkpt lat="59.983928" lon="17.7379272">
        <ele>37.6287</ele>
        <time>2012-02-20T16:28:01Z</time>
      </trkpt>
      <trkpt lat="59.9839551" lon="17.7379247">
        <ele>36.6675</ele>
        <time>2012-02-20T16:28:03Z</time>
      </trkpt>
      <trkpt lat="59.9840172" lon="17.7379049">
        <ele>38.1094</ele>
        <time>2012-02-20T16:28:07Z</time>
      </trkpt>
      <trkpt lat="59.9841167" lon="17.7379166">
        <ele>39.5513</ele>
        <time>2012-02-20T16:28:13Z</time>
      </trkpt>
      <trkpt lat="59.9842209" lon="17.7379317">
        <ele>40.9934</ele>
        <time>2012-02-20T16:28:19Z</time>
      </trkpt>
      <trkpt lat="59.9842731" lon="17.7379234">
        <ele>41.474</ele>
        <time>2012-02-20T16:28:23Z</time>
      </trkpt>
      <trkpt lat="59.9843793" lon="17.7379496">
        <ele>45.7999</ele>
        <time>2012-02-20T16:28:29Z</time>
      </trkpt>
      <trkpt lat="59.9845239" lon="17.7379869">
        <ele>45.7999</ele>
        <time>2012-02-20T16:28:38Z</time>
      </trkpt>
      <trkpt lat="59.9846112" lon="17.7380044">
        <ele>45.7999</ele>
        <time>2012-02-20T16:28:43Z</time>
      </trkpt>
      <trkpt lat="59.9846957" lon="17.7380277">
        <ele>45.3192</ele>
        <time>2012-02-20T16:28:49Z</time>
      </trkpt>
      <trkpt lat="59.9847999" lon="17.7380604">
        <ele>44.358</ele>
        <time>2012-02-20T16:28:56Z</time>
      </trkpt>
      <trkpt lat="59.9849085" lon="17.7381054">
        <ele>43.8773</ele>
        <time>2012-02-20T16:29:03Z</time>
      </trkpt>
      <trkpt lat="59.9850049" lon="17.7381273">
        <ele>42.916</ele>
        <time>2012-02-20T16:29:09Z</time>
      </trkpt>
      <trkpt lat="59.9851157" lon="17.7381449">
        <ele>43.8773</ele>
        <time>2012-02-20T16:29:16Z</time>
      </trkpt>
      <trkpt lat="59.9852227" lon="17.738155">
        <ele>42.916</ele>
        <time>2012-02-20T16:29:23Z</time>
      </trkpt>
      <trkpt lat="59.9853318" lon="17.7381888">
        <ele>43.3966</ele>
        <time>2012-02-20T16:29:30Z</time>
      </trkpt>
      <trkpt lat="59.985422" lon="17.7381912">
        <ele>44.8386</ele>
        <time>2012-02-20T16:29:36Z</time>
      </trkpt>
      <trkpt lat="59.9855144" lon="17.7382109">
        <ele>46.7612</ele>
        <time>2012-02-20T16:29:42Z</time>
      </trkpt>
      <trkpt lat="59.9856407" lon="17.738271">
        <ele>49.1646</ele>
        <time>2012-02-20T16:29:50Z</time>
      </trkpt>
      <trkpt lat="59.9857534" lon="17.7383484">
        <ele>47.2418</ele>
        <time>2012-02-20T16:29:57Z</time>
      </trkpt>
      <trkpt lat="59.9858577" lon="17.7384056">
        <ele>46.7612</ele>
        <time>2012-02-20T16:30:04Z</time>
      </trkpt>
      <trkpt lat="59.9859606" lon="17.7384529">
        <ele>46.7612</ele>
        <time>2012-02-20T16:30:10Z</time>
      </trkpt>
      <trkpt lat="59.9860049" lon="17.7384768">
        <ele>46.2806</ele>
        <time>2012-02-20T16:30:13Z</time>
      </trkpt>
      <trkpt lat="59.9860922" lon="17.7385291">
        <ele>44.8386</ele>
        <time>2012-02-20T16:30:19Z</time>
      </trkpt>
      <trkpt lat="59.986143" lon="17.7385639">
        <ele>44.8386</ele>
        <time>2012-02-20T16:30:23Z</time>
      </trkpt>
      <trkpt lat="59.9862575" lon="17.7386522">
        <ele>45.7999</ele>
        <time>2012-02-20T16:30:30Z</time>
      </trkpt>
      <trkpt lat="59.9862903" lon="17.7386648">
        <ele>45.7999</ele>
        <time>2012-02-20T16:30:32Z</time>
      </trkpt>
      <trkpt lat="59.9863548" lon="17.7387134">
        <ele>46.2806</ele>
        <time>2012-02-20T16:30:36Z</time>
      </trkpt>
      <trkpt lat="59.9864444" lon="17.7387969">
        <ele>47.7225</ele>
        <time>2012-02-20T16:30:42Z</time>
      </trkpt>
      <trkpt lat="59.986547" lon="17.7389011">
        <ele>46.7612</ele>
        <time>2012-02-20T16:30:50Z</time>
      </trkpt>
      <trkpt lat="59.9866359" lon="17.7389692">
        <ele>45.3192</ele>
        <time>2012-02-20T16:30:56Z</time>
      </trkpt>
      <trkpt lat="59.9867258" lon="17.7390583">
        <ele>44.8386</ele>
        <time>2012-02-20T16:31:03Z</time>
      </trkpt>
      <trkpt lat="59.986826" lon="17.7391135">
        <ele>48.684</ele>
        <time>2012-02-20T16:31:09Z</time>
      </trkpt>
      <trkpt lat="59.9869089" lon="17.7391844">
        <ele>48.684</ele>
        <time>2012-02-20T16:31:15Z</time>
      </trkpt>
      <trkpt lat="59.9870117" lon="17.7392533">
        <ele>52.0486</ele>
        <time>2012-02-20T16:31:21Z</time>
      </trkpt>
      <trkpt lat="59.9870201" lon="17.73926">
        <ele>52.0486</ele>
        <time>2012-02-20T16:31:22Z</time>
      </trkpt>
      <trkpt lat="59.9870651" lon="17.7392927">
        <ele>53.4905</ele>
        <time>2012-02-20T16:31:26Z</time>
      </trkpt>
      <trkpt lat="59.9871341" lon="17.7393316">
        <ele>53.9712</ele>
        <time>2012-02-20T16:31:31Z</time>
      </trkpt>
      <trkpt lat="59.9872237" lon="17.7393601">
        <ele>52.0486</ele>
        <time>2012-02-20T16:31:38Z</time>
      </trkpt>
      <trkpt lat="59.9872771" lon="17.7393614">
        <ele>46.7612</ele>
        <time>2012-02-20T16:31:43Z</time>
      </trkpt>
      <trkpt lat="59.9873691" lon="17.7393242">
        <ele>45.3192</ele>
        <time>2012-02-20T16:31:50Z</time>
      </trkpt>
      <trkpt lat="59.9874909" lon="17.739315">
        <ele>47.7225</ele>
        <time>2012-02-20T16:31:58Z</time>
      </trkpt>
      <trkpt lat="59.9876053" lon="17.7392971">
        <ele>48.2034</ele>
        <time>2012-02-20T16:32:05Z</time>
      </trkpt>
      <trkpt lat="59.987668" lon="17.7392999">
        <ele>47.2418</ele>
        <time>2012-02-20T16:32:09Z</time>
      </trkpt>
      <trkpt lat="59.9877434" lon="17.7392888">
        <ele>48.2034</ele>
        <time>2012-02-20T16:32:14Z</time>
      </trkpt>
      <trkpt lat="59.9878114" lon="17.7392736">
        <ele>48.2034</ele>
        <time>2012-02-20T16:32:18Z</time>
      </trkpt>
      <trkpt lat="59.9879292" lon="17.7392549">
        <ele>46.7612</ele>
        <time>2012-02-20T16:32:25Z</time>
      </trkpt>
      <trkpt lat="59.9879603" lon="17.7392585">
        <ele>45.7999</ele>
        <time>2012-02-20T16:32:27Z</time>
      </trkpt>
      <trkpt lat="59.9880313" lon="17.7392379">
        <ele>45.7999</ele>
        <time>2012-02-20T16:32:32Z</time>
      </trkpt>
      <trkpt lat="59.9881426" lon="17.7391697">
        <ele>49.6453</ele>
        <time>2012-02-20T16:32:40Z</time>
      </trkpt>
      <trkpt lat="59.9882174" lon="17.739158">
        <ele>50.6066</ele>
        <time>2012-02-20T16:32:45Z</time>
      </trkpt>
      <trkpt lat="59.9883282" lon="17.7391352">
        <ele>51.5679</ele>
        <time>2012-02-20T16:32:52Z</time>
      </trkpt>
      <trkpt lat="59.9884006" lon="17.7391125">
        <ele>50.126</ele>
        <time>2012-02-20T16:32:58Z</time>
      </trkpt>
      <trkpt lat="59.9885036" lon="17.7390669">
        <ele>51.0872</ele>
        <time>2012-02-20T16:33:04Z</time>
      </trkpt>
      <trkpt lat="59.9885585" lon="17.7390347">
        <ele>53.9712</ele>
        <time>2012-02-20T16:33:07Z</time>
      </trkpt>
      <trkpt lat="59.9887021" lon="17.7389591">
        <ele>60.7003</ele>
        <time>2012-02-20T16:33:14Z</time>
      </trkpt>
      <trkpt lat="59.9888005" lon="17.7388682">
        <ele>59.2584</ele>
        <time>2012-02-20T16:33:22Z</time>
      </trkpt>
      <trkpt lat="59.9888877" lon="17.7388042">
        <ele>58.7777</ele>
        <time>2012-02-20T16:33:29Z</time>
      </trkpt>
      <trkpt lat="59.9889863" lon="17.738726">
        <ele>57.8165</ele>
        <time>2012-02-20T16:33:36Z</time>
      </trkpt>
      <trkpt lat="59.9890917" lon="17.7386795">
        <ele>60.7003</ele>
        <time>2012-02-20T16:33:42Z</time>
      </trkpt>
      <trkpt lat="59.9891772" lon="17.738622">
        <ele>59.7391</ele>
        <time>2012-02-20T16:33:48Z</time>
      </trkpt>
      <trkpt lat="59.9892471" lon="17.7385748">
        <ele>56.8551</ele>
        <time>2012-02-20T16:33:54Z</time>
      </trkpt>
      <trkpt lat="59.9892603" lon="17.7385649">
        <ele>56.8551</ele>
        <time>2012-02-20T16:33:55Z</time>
      </trkpt>
      <trkpt lat="59.9893209" lon="17.7385282">
        <ele>55.8938</ele>
        <time>2012-02-20T16:33:59Z</time>
      </trkpt>
      <trkpt lat="59.989438" lon="17.7384882">
        <ele>53.9712</ele>
        <time>2012-02-20T16:34:07Z</time>
      </trkpt>
      <trkpt lat="59.9895257" lon="17.7384453">
        <ele>51.0872</ele>
        <time>2012-02-20T16:34:14Z</time>
      </trkpt>
      <trkpt lat="59.9896257" lon="17.7384032">
        <ele>48.684</ele>
        <time>2012-02-20T16:34:20Z</time>
      </trkpt>
      <trkpt lat="59.9896553" lon="17.7383842">
        <ele>48.684</ele>
        <time>2012-02-20T16:34:22Z</time>
      </trkpt>
      <trkpt lat="59.9897387" lon="17.7383469">
        <ele>46.2806</ele>
        <time>2012-02-20T16:34:27Z</time>
      </trkpt>
      <trkpt lat="59.9898386" lon="17.7383173">
        <ele>42.916</ele>
        <time>2012-02-20T16:34:34Z</time>
      </trkpt>
      <trkpt lat="59.9899397" lon="17.7382989">
        <ele>41.474</ele>
        <time>2012-02-20T16:34:40Z</time>
      </trkpt>
      <trkpt lat="59.9899718" lon="17.7383053">
        <ele>40.5128</ele>
        <time>2012-02-20T16:34:42Z</time>
      </trkpt>
      <trkpt lat="59.9900591" lon="17.7382581">
        <ele>41.9547</ele>
        <time>2012-02-20T16:34:49Z</time>
      </trkpt>
      <trkpt lat="59.990183" lon="17.7382178">
        <ele>43.8773</ele>
        <time>2012-02-20T16:34:57Z</time>
      </trkpt>
      <trkpt lat="59.9902831" lon="17.7381644">
        <ele>47.7225</ele>
        <time>2012-02-20T16:35:03Z</time>
      </trkpt>
      <trkpt lat="59.9903634" lon="17.7381276">
        <ele>48.684</ele>
        <time>2012-02-20T16:35:08Z</time>
      </trkpt>
      <trkpt lat="59.9904369" lon="17.7380774">
        <ele>52.5292</ele>
        <time>2012-02-20T16:35:13Z</time>
      </trkpt>
      <trkpt lat="59.9904626" lon="17.7380691">
        <ele>53.0098</ele>
        <time>2012-02-20T16:35:15Z</time>
      </trkpt>
      <trkpt lat="59.9905648" lon="17.7380658">
        <ele>49.6453</ele>
        <time>2012-02-20T16:35:21Z</time>
      </trkpt>
      <trkpt lat="59.9906531" lon="17.738011">
        <ele>50.6066</ele>
        <time>2012-02-20T16:35:26Z</time>
      </trkpt>
      <trkpt lat="59.9907601" lon="17.737951">
        <ele>53.0098</ele>
        <time>2012-02-20T16:35:32Z</time>
      </trkpt>
      <trkpt lat="59.9908219" lon="17.737909">
        <ele>53.4905</ele>
        <time>2012-02-20T16:35:37Z</time>
      </trkpt>
      <trkpt lat="59.990899" lon="17.737851">
        <ele>56.3745</ele>
        <time>2012-02-20T16:35:42Z</time>
      </trkpt>
      <trkpt lat="59.9909385" lon="17.7378215">
        <ele>57.3358</ele>
        <time>2012-02-20T16:35:45Z</time>
      </trkpt>
      <trkpt lat="59.9910078" lon="17.7377724">
        <ele>58.7777</ele>
        <time>2012-02-20T16:35:51Z</time>
      </trkpt>
      <trkpt lat="59.9910604" lon="17.7377257">
        <ele>60.7003</ele>
        <time>2012-02-20T16:35:55Z</time>
      </trkpt>
      <trkpt lat="59.9911636" lon="17.7376806">
        <ele>60.2197</ele>
        <time>2012-02-20T16:36:02Z</time>
      </trkpt>
      <trkpt lat="59.9912776" lon="17.7376571">
        <ele>55.4131</ele>
        <time>2012-02-20T16:36:10Z</time>
      </trkpt>
      <trkpt lat="59.991361" lon="17.7376204">
        <ele>53.4905</ele>
        <time>2012-02-20T16:36:15Z</time>
      </trkpt>
      <trkpt lat="59.9914191" lon="17.7376211">
        <ele>50.126</ele>
        <time>2012-02-20T16:36:19Z</time>
      </trkpt>
      <trkpt lat="59.9915117" lon="17.7376317">
        <ele>46.7612</ele>
        <time>2012-02-20T16:36:25Z</time>
      </trkpt>
      <trkpt lat="59.9916103" lon="17.7376163">
        <ele>45.3192</ele>
        <time>2012-02-20T16:36:32Z</time>
      </trkpt>
      <trkpt lat="59.9916926" lon="17.7376019">
        <ele>45.7999</ele>
        <time>2012-02-20T16:36:37Z</time>
      </trkpt>
      <trkpt lat="59.9918009" lon="17.7375895">
        <ele>47.2418</ele>
        <time>2012-02-20T16:36:43Z</time>
      </trkpt>
      <trkpt lat="59.9918932" lon="17.7375672">
        <ele>47.7225</ele>
        <time>2012-02-20T16:36:49Z</time>
      </trkpt>
      <trkpt lat="59.9919509" lon="17.7375497">
        <ele>48.2034</ele>
        <time>2012-02-20T16:36:53Z</time>
      </trkpt>
      <trkpt lat="59.9920439" lon="17.7375292">
        <ele>51.0872</ele>
        <time>2012-02-20T16:36:59Z</time>
      </trkpt>
      <trkpt lat="59.9920897" lon="17.7375242">
        <ele>51.0872</ele>
        <time>2012-02-20T16:37:03Z</time>
      </trkpt>
      <trkpt lat="59.9921731" lon="17.7374785">
        <ele>51.5679</ele>
        <time>2012-02-20T16:37:09Z</time>
      </trkpt>
      <trkpt lat="59.9922353" lon="17.7374309">
        <ele>52.5292</ele>
        <time>2012-02-20T16:37:13Z</time>
      </trkpt>
      <trkpt lat="59.9922799" lon="17.7374853">
        <ele>53.0098</ele>
        <time>2012-02-20T16:37:17Z</time>
      </trkpt>
      <trkpt lat="59.9922666" lon="17.7375079">
        <ele>53.4905</ele>
        <time>2012-02-20T16:37:18Z</time>
      </trkpt>
      <trkpt lat="59.9922213" lon="17.7376066">
        <ele>54.4518</ele>
        <time>2012-02-20T16:37:21Z</time>
      </trkpt>
      <trkpt lat="59.9921162" lon="17.7376828">
        <ele>54.9324</ele>
        <time>2012-02-20T16:37:27Z</time>
      </trkpt>
      <trkpt lat="59.9920577" lon="17.7376992">
        <ele>58.7777</ele>
        <time>2012-02-20T16:37:31Z</time>
      </trkpt>
      <trkpt lat="59.9919878" lon="17.737748">
        <ele>60.7003</ele>
        <time>2012-02-20T16:37:34Z</time>
      </trkpt>
      <trkpt lat="59.9918758" lon="17.7377902">
        <ele>64.0651</ele>
        <time>2012-02-20T16:37:40Z</time>
      </trkpt>
      <trkpt lat="59.9917554" lon="17.7377919">
        <ele>65.5071</ele>
        <time>2012-02-20T16:37:47Z</time>
      </trkpt>
      <trkpt lat="59.991662" lon="17.7377723">
        <ele>70.3135</ele>
        <time>2012-02-20T16:37:52Z</time>
      </trkpt>
      <trkpt lat="59.9916403" lon="17.7377489">
        <ele>70.7942</ele>
        <time>2012-02-20T16:37:54Z</time>
      </trkpt>
      <trkpt lat="59.9915968" lon="17.7377193">
        <ele>69.8329</ele>
        <time>2012-02-20T16:37:58Z</time>
      </trkpt>
      <trkpt lat="59.9915298" lon="17.7377301">
        <ele>67.9103</ele>
        <time>2012-02-20T16:38:03Z</time>
      </trkpt>
      <trkpt lat="59.9915015" lon="17.7377374">
        <ele>68.3909</ele>
        <time>2012-02-20T16:38:05Z</time>
      </trkpt>
      <trkpt lat="59.9915356" lon="17.7377826">
        <ele>59.2584</ele>
        <time>2012-02-20T16:38:18Z</time>
      </trkpt>
      <trkpt lat="59.9915352" lon="17.7377846">
        <ele>58.7777</ele>
        <time>2012-02-20T16:38:19Z</time>
      </trkpt>
      <trkpt lat="59.9914821" lon="17.7377898">
        <ele>58.7777</ele>
        <time>2012-02-20T16:38:22Z</time>
      </trkpt>
      <trkpt lat="59.9914719" lon="17.737783">
        <ele>58.7777</ele>
        <time>2012-02-20T16:38:23Z</time>
      </trkpt>
      <trkpt lat="59.9913951" lon="17.7378661">
        <ele>57.8165</ele>
        <time>2012-02-20T16:38:27Z</time>
      </trkpt>
      <trkpt lat="59.9913625" lon="17.7378617">
        <ele>58.2971</ele>
        <time>2012-02-20T16:38:29Z</time>
      </trkpt>
      <trkpt lat="59.9912891" lon="17.7378565">
        <ele>60.7003</ele>
        <time>2012-02-20T16:38:34Z</time>
      </trkpt>
      <trkpt lat="59.9912232" lon="17.7379166">
        <ele>58.7777</ele>
        <time>2012-02-20T16:38:38Z</time>
      </trkpt>
      <trkpt lat="59.9911952" lon="17.7379225">
        <ele>56.3745</ele>
        <time>2012-02-20T16:38:41Z</time>
      </trkpt>
      <trkpt lat="59.9911564" lon="17.7379213">
        <ele>55.4131</ele>
        <time>2012-02-20T16:38:45Z</time>
      </trkpt>
      <trkpt lat="59.9911243" lon="17.7379168">
        <ele>55.8938</ele>
        <time>2012-02-20T16:38:48Z</time>
      </trkpt>
      <trkpt lat="59.9910775" lon="17.7379324">
        <ele>57.3358</ele>
        <time>2012-02-20T16:38:51Z</time>
      </trkpt>
      <trkpt lat="59.9910145" lon="17.7379641">
        <ele>56.8551</ele>
        <time>2012-02-20T16:38:55Z</time>
      </trkpt>
      <trkpt lat="59.9909837" lon="17.7379998">
        <ele>56.3745</ele>
        <time>2012-02-20T16:38:57Z</time>
      </trkpt>
      <trkpt lat="59.9908969" lon="17.7380079">
        <ele>57.8165</ele>
        <time>2012-02-20T16:39:03Z</time>
      </trkpt>
      <trkpt lat="59.9908061" lon="17.7380461">
        <ele>58.2971</ele>
        <time>2012-02-20T16:39:09Z</time>
      </trkpt>
      <trkpt lat="59.9907068" lon="17.7380614">
        <ele>63.5844</ele>
        <time>2012-02-20T16:39:15Z</time>
      </trkpt>
      <trkpt lat="59.9906186" lon="17.7381204">
        <ele>64.0651</ele>
        <time>2012-02-20T16:39:20Z</time>
      </trkpt>
      <trkpt lat="59.9905856" lon="17.7381361">
        <ele>64.0651</ele>
        <time>2012-02-20T16:39:22Z</time>
      </trkpt>
      <trkpt lat="59.9904613" lon="17.7382454">
        <ele>58.7777</ele>
        <time>2012-02-20T16:39:30Z</time>
      </trkpt>
      <trkpt lat="59.9903981" lon="17.7382763">
        <ele>58.2971</ele>
        <time>2012-02-20T16:39:34Z</time>
      </trkpt>
      <trkpt lat="59.9903514" lon="17.7383068">
        <ele>56.3745</ele>
        <time>2012-02-20T16:39:38Z</time>
      </trkpt>
      <trkpt lat="59.9902499" lon="17.7383639">
        <ele>54.9324</ele>
        <time>2012-02-20T16:39:44Z</time>
      </trkpt>
      <trkpt lat="59.9901628" lon="17.7383875">
        <ele>53.0098</ele>
        <time>2012-02-20T16:39:51Z</time>
      </trkpt>
      <trkpt lat="59.9900817" lon="17.7384049">
        <ele>55.8938</ele>
        <time>2012-02-20T16:39:56Z</time>
      </trkpt>
      <trkpt lat="59.9900292" lon="17.7384137">
        <ele>55.8938</ele>
        <time>2012-02-20T16:40:00Z</time>
      </trkpt>
      <trkpt lat="59.9899335" lon="17.7384587">
        <ele>55.8938</ele>
        <time>2012-02-20T16:40:06Z</time>
      </trkpt>
      <trkpt lat="59.9898676" lon="17.738457">
        <ele>60.7003</ele>
        <time>2012-02-20T16:40:10Z</time>
      </trkpt>
      <trkpt lat="59.9898016" lon="17.7384722">
        <ele>61.181</ele>
        <time>2012-02-20T16:40:15Z</time>
      </trkpt>
      <trkpt lat="59.9897391" lon="17.7384991">
        <ele>61.181</ele>
        <time>2012-02-20T16:40:19Z</time>
      </trkpt>
      <trkpt lat="59.9896625" lon="17.738526">
        <ele>61.6617</ele>
        <time>2012-02-20T16:40:25Z</time>
      </trkpt>
      <trkpt lat="59.9895496" lon="17.7385626">
        <ele>60.7003</ele>
        <time>2012-02-20T16:40:32Z</time>
      </trkpt>
      <trkpt lat="59.9894377" lon="17.7386266">
        <ele>58.7777</ele>
        <time>2012-02-20T16:40:38Z</time>
      </trkpt>
      <trkpt lat="59.9893739" lon="17.7386633">
        <ele>58.7777</ele>
        <time>2012-02-20T16:40:42Z</time>
      </trkpt>
      <trkpt lat="59.9892891" lon="17.7386903">
        <ele>56.8551</ele>
        <time>2012-02-20T16:40:49Z</time>
      </trkpt>
      <trkpt lat="59.9892222" lon="17.7387015">
        <ele>54.4518</ele>
        <time>2012-02-20T16:40:55Z</time>
      </trkpt>
      <trkpt lat="59.9891596" lon="17.7387301">
        <ele>52.0486</ele>
        <time>2012-02-20T16:41:00Z</time>
      </trkpt>
      <trkpt lat="59.9890963" lon="17.7387784">
        <ele>51.5679</ele>
        <time>2012-02-20T16:41:05Z</time>
      </trkpt>
      <trkpt lat="59.9890528" lon="17.7388219">
        <ele>51.0872</ele>
        <time>2012-02-20T16:41:08Z</time>
      </trkpt>
      <trkpt lat="59.9889417" lon="17.7388965">
        <ele>48.684</ele>
        <time>2012-02-20T16:41:15Z</time>
      </trkpt>
      <trkpt lat="59.9888623" lon="17.7389464">
        <ele>48.684</ele>
        <time>2012-02-20T16:41:20Z</time>
      </trkpt>
      <trkpt lat="59.9887345" lon="17.7390257">
        <ele>47.2418</ele>
        <time>2012-02-20T16:41:29Z</time>
      </trkpt>
      <trkpt lat="59.9886317" lon="17.7390932">
        <ele>47.2418</ele>
        <time>2012-02-20T16:41:36Z</time>
      </trkpt>
      <trkpt lat="59.9885416" lon="17.7391482">
        <ele>45.7999</ele>
        <time>2012-02-20T16:41:43Z</time>
      </trkpt>
      <trkpt lat="59.988496" lon="17.7391967">
        <ele>44.8386</ele>
        <time>2012-02-20T16:41:46Z</time>
      </trkpt>
      <trkpt lat="59.9883403" lon="17.7392797">
        <ele>48.2034</ele>
        <time>2012-02-20T16:41:56Z</time>
      </trkpt>
      <trkpt lat="59.9882944" lon="17.7393057">
        <ele>48.684</ele>
        <time>2012-02-20T16:41:59Z</time>
      </trkpt>
      <trkpt lat="59.9882405" lon="17.7393208">
        <ele>49.1646</ele>
        <time>2012-02-20T16:42:03Z</time>
      </trkpt>
      <trkpt lat="59.9881069" lon="17.7393474">
        <ele>48.684</ele>
        <time>2012-02-20T16:42:12Z</time>
      </trkpt>
      <trkpt lat="59.9879951" lon="17.7393864">
        <ele>49.6453</ele>
        <time>2012-02-20T16:42:19Z</time>
      </trkpt>
      <trkpt lat="59.9878505" lon="17.7393864">
        <ele>48.684</ele>
        <time>2012-02-20T16:42:29Z</time>
      </trkpt>
      <trkpt lat="59.9877428" lon="17.7394002">
        <ele>48.2034</ele>
        <time>2012-02-20T16:42:36Z</time>
      </trkpt>
      <trkpt lat="59.987625" lon="17.7394303">
        <ele>48.684</ele>
        <time>2012-02-20T16:42:44Z</time>
      </trkpt>
      <trkpt lat="59.9874905" lon="17.7394562">
        <ele>52.0486</ele>
        <time>2012-02-20T16:42:52Z</time>
      </trkpt>
      <trkpt lat="59.9873413" lon="17.7394883">
        <ele>53.4905</ele>
        <time>2012-02-20T16:43:02Z</time>
      </trkpt>
      <trkpt lat="59.9872158" lon="17.7395228">
        <ele>55.8938</ele>
        <time>2012-02-20T16:43:10Z</time>
      </trkpt>
      <trkpt lat="59.9871228" lon="17.7395273">
        <ele>57.3358</ele>
        <time>2012-02-20T16:43:16Z</time>
      </trkpt>
      <trkpt lat="59.9870201" lon="17.7395071">
        <ele>56.3745</ele>
        <time>2012-02-20T16:43:23Z</time>
      </trkpt>
      <trkpt lat="59.986992" lon="17.7394898">
        <ele>57.3358</ele>
        <time>2012-02-20T16:43:25Z</time>
      </trkpt>
      <trkpt lat="59.9869191" lon="17.7394174">
        <ele>54.9324</ele>
        <time>2012-02-20T16:43:32Z</time>
      </trkpt>
      <trkpt lat="59.9868169" lon="17.7393306">
        <ele>55.4131</ele>
        <time>2012-02-20T16:43:39Z</time>
      </trkpt>
      <trkpt lat="59.9867482" lon="17.7392751">
        <ele>56.3745</ele>
        <time>2012-02-20T16:43:44Z</time>
      </trkpt>
      <trkpt lat="59.9866766" lon="17.7391453">
        <ele>54.4518</ele>
        <time>2012-02-20T16:43:51Z</time>
      </trkpt>
      <trkpt lat="59.9866082" lon="17.7390908">
        <ele>53.9712</ele>
        <time>2012-02-20T16:43:56Z</time>
      </trkpt>
      <trkpt lat="59.986513" lon="17.7390077">
        <ele>53.9712</ele>
        <time>2012-02-20T16:44:02Z</time>
      </trkpt>
      <trkpt lat="59.9864575" lon="17.7389628">
        <ele>53.0098</ele>
        <time>2012-02-20T16:44:07Z</time>
      </trkpt>
      <trkpt lat="59.9864339" lon="17.7389444">
        <ele>52.5292</ele>
        <time>2012-02-20T16:44:09Z</time>
      </trkpt>
      <trkpt lat="59.9863431" lon="17.7388377">
        <ele>54.4518</ele>
        <time>2012-02-20T16:44:16Z</time>
      </trkpt>
      <trkpt lat="59.9863128" lon="17.7388201">
        <ele>54.4518</ele>
        <time>2012-02-20T16:44:18Z</time>
      </trkpt>
      <trkpt lat="59.9862544" lon="17.7387886">
        <ele>53.4905</ele>
        <time>2012-02-20T16:44:22Z</time>
      </trkpt>
      <trkpt lat="59.9861903" lon="17.7387047">
        <ele>52.5292</ele>
        <time>2012-02-20T16:44:27Z</time>
      </trkpt>
      <trkpt lat="59.9861346" lon="17.7386762">
        <ele>50.6066</ele>
        <time>2012-02-20T16:44:32Z</time>
      </trkpt>
      <trkpt lat="59.9860773" lon="17.7386187">
        <ele>47.7225</ele>
        <time>2012-02-20T16:44:37Z</time>
      </trkpt>
      <trkpt lat="59.985995" lon="17.7385617">
        <ele>46.7612</ele>
        <time>2012-02-20T16:44:43Z</time>
      </trkpt>
      <trkpt lat="59.9859814" lon="17.7385585">
        <ele>46.2806</ele>
        <time>2012-02-20T16:44:44Z</time>
      </trkpt>
      <trkpt lat="59.9859166" lon="17.7385082">
        <ele>45.7999</ele>
        <time>2012-02-20T16:44:49Z</time>
      </trkpt>
      <trkpt lat="59.9858273" lon="17.738487">
        <ele>45.3192</ele>
        <time>2012-02-20T16:44:55Z</time>
      </trkpt>
      <trkpt lat="59.9857943" lon="17.7384737">
        <ele>44.8386</ele>
        <time>2012-02-20T16:44:57Z</time>
      </trkpt>
      <trkpt lat="59.9857065" lon="17.738411">
        <ele>42.916</ele>
        <time>2012-02-20T16:45:04Z</time>
      </trkpt>
      <trkpt lat="59.9856122" lon="17.7384121">
        <ele>43.8773</ele>
        <time>2012-02-20T16:45:10Z</time>
      </trkpt>
      <trkpt lat="59.9854913" lon="17.7383761">
        <ele>45.3192</ele>
        <time>2012-02-20T16:45:18Z</time>
      </trkpt>
      <trkpt lat="59.9854138" lon="17.7383569">
        <ele>46.2806</ele>
        <time>2012-02-20T16:45:22Z</time>
      </trkpt>
      <trkpt lat="59.9853206" lon="17.7383074">
        <ele>46.2806</ele>
        <time>2012-02-20T16:45:29Z</time>
      </trkpt>
      <trkpt lat="59.9852447" lon="17.7382823">
        <ele>46.2806</ele>
        <time>2012-02-20T16:45:34Z</time>
      </trkpt>
      <trkpt lat="59.9851839" lon="17.7382623">
        <ele>46.2806</ele>
        <time>2012-02-20T16:45:38Z</time>
      </trkpt>
      <trkpt lat="59.9850646" lon="17.7382307">
        <ele>46.7612</ele>
        <time>2012-02-20T16:45:46Z</time>
      </trkpt>
      <trkpt lat="59.9849563" lon="17.7382049">
        <ele>45.7999</ele>
        <time>2012-02-20T16:45:53Z</time>
      </trkpt>
      <trkpt lat="59.9849088" lon="17.7382136">
        <ele>45.3192</ele>
        <time>2012-02-20T16:45:56Z</time>
      </trkpt>
      <trkpt lat="59.984815" lon="17.7381679">
        <ele>44.358</ele>
        <time>2012-02-20T16:46:03Z</time>
      </trkpt>
      <trkpt lat="59.9847971" lon="17.738165">
        <ele>44.358</ele>
        <time>2012-02-20T16:46:04Z</time>
      </trkpt>
      <trkpt lat="59.9847631" lon="17.7381566">
        <ele>43.8773</ele>
        <time>2012-02-20T16:46:06Z</time>
      </trkpt>
      <trkpt lat="59.984677" lon="17.7381147">
        <ele>45.7999</ele>
        <time>2012-02-20T16:46:13Z</time>
      </trkpt>
      <trkpt lat="59.9845808" lon="17.7380842">
        <ele>46.7612</ele>
        <time>2012-02-20T16:46:20Z</time>
      </trkpt>
      <trkpt lat="59.9845673" lon="17.7380783">
        <ele>46.2806</ele>
        <time>2012-02-20T16:46:21Z</time>
      </trkpt>
      <trkpt lat="59.9844672" lon="17.7380899">
        <ele>48.2034</ele>
        <time>2012-02-20T16:46:27Z</time>
      </trkpt>
      <trkpt lat="59.984372" lon="17.7380977">
        <ele>50.6066</ele>
        <time>2012-02-20T16:46:32Z</time>
      </trkpt>
      <trkpt lat="59.9842657" lon="17.7380765">
        <ele>53.4905</ele>
        <time>2012-02-20T16:46:38Z</time>
      </trkpt>
      <trkpt lat="59.9841118" lon="17.7380721">
        <ele>53.0098</ele>
        <time>2012-02-20T16:46:47Z</time>
      </trkpt>
      <trkpt lat="59.9839996" lon="17.7380923">
        <ele>54.4518</ele>
        <time>2012-02-20T16:46:53Z</time>
      </trkpt>
      <trkpt lat="59.9839332" lon="17.7381001">
        <ele>54.4518</ele>
        <time>2012-02-20T16:46:57Z</time>
      </trkpt>
      <trkpt lat="59.9838323" lon="17.738134">
        <ele>53.4905</ele>
        <time>2012-02-20T16:47:03Z</time>
      </trkpt>
      <trkpt lat="59.9838161" lon="17.7381376">
        <ele>53.4905</ele>
        <time>2012-02-20T16:47:04Z</time>
      </trkpt>
      <trkpt lat="59.9836904" lon="17.7381401">
        <ele>50.126</ele>
        <time>2012-02-20T16:47:13Z</time>
      </trkpt>
      <trkpt lat="59.9835702" lon="17.7381375">
        <ele>46.7612</ele>
        <time>2012-02-20T16:47:22Z</time>
      </trkpt>
      <trkpt lat="59.9834624" lon="17.738143">
        <ele>43.8773</ele>
        <time>2012-02-20T16:47:30Z</time>
      </trkpt>
      <trkpt lat="59.9833309" lon="17.7381741">
        <ele>43.3966</ele>
        <time>2012-02-20T16:47:39Z</time>
      </trkpt>
      <trkpt lat="59.9832029" lon="17.7381722">
        <ele>40.5128</ele>
        <time>2012-02-20T16:47:49Z</time>
      </trkpt>
      <trkpt lat="59.9831096" lon="17.7381753">
        <ele>38.5901</ele>
        <time>2012-02-20T16:47:56Z</time>
      </trkpt>
      <trkpt lat="59.9830936" lon="17.7381795">
        <ele>38.5901</ele>
        <time>2012-02-20T16:47:57Z</time>
      </trkpt>
      <trkpt lat="59.9830572" lon="17.7381679">
        <ele>38.5901</ele>
        <time>2012-02-20T16:48:00Z</time>
      </trkpt>
      <trkpt lat="59.982947" lon="17.7381534">
        <ele>39.5513</ele>
        <time>2012-02-20T16:48:08Z</time>
      </trkpt>
      <trkpt lat="59.9828574" lon="17.7381555">
        <ele>40.5128</ele>
        <time>2012-02-20T16:48:14Z</time>
      </trkpt>
      <trkpt lat="59.9828432" lon="17.7381529">
        <ele>40.9934</ele>
        <time>2012-02-20T16:48:15Z</time>
      </trkpt>
      <trkpt lat="59.982731" lon="17.7381438">
        <ele>40.9934</ele>
        <time>2012-02-20T16:48:22Z</time>
      </trkpt>
      <trkpt lat="59.9826403" lon="17.7381352">
        <ele>40.5128</ele>
        <time>2012-02-20T16:48:28Z</time>
      </trkpt>
      <trkpt lat="59.9825528" lon="17.7381397">
        <ele>40.0321</ele>
        <time>2012-02-20T16:48:33Z</time>
      </trkpt>
      <trkpt lat="59.9824793" lon="17.7381541">
        <ele>41.474</ele>
        <time>2012-02-20T16:48:37Z</time>
      </trkpt>
      <trkpt lat="59.9823015" lon="17.7382187">
        <ele>46.7612</ele>
        <time>2012-02-20T16:48:46Z</time>
      </trkpt>
      <trkpt lat="59.9821895" lon="17.7382276">
        <ele>47.2418</ele>
        <time>2012-02-20T16:48:54Z</time>
      </trkpt>
      <trkpt lat="59.9821032" lon="17.7382712">
        <ele>48.2034</ele>
        <time>2012-02-20T16:49:00Z</time>
      </trkpt>
      <trkpt lat="59.9820012" lon="17.7383404">
        <ele>50.126</ele>
        <time>2012-02-20T16:49:07Z</time>
      </trkpt>
      <trkpt lat="59.981908" lon="17.7383847">
        <ele>50.126</ele>
        <time>2012-02-20T16:49:13Z</time>
      </trkpt>
      <trkpt lat="59.9818312" lon="17.738412">
        <ele>50.126</ele>
        <time>2012-02-20T16:49:19Z</time>
      </trkpt>
      <trkpt lat="59.9817499" lon="17.7384426">
        <ele>46.7612</ele>
        <time>2012-02-20T16:49:24Z</time>
      </trkpt>
      <trkpt lat="59.9816852" lon="17.7384632">
        <ele>46.2806</ele>
        <time>2012-02-20T16:49:28Z</time>
      </trkpt>
      <trkpt lat="59.9816732" lon="17.7384645">
        <ele>45.3192</ele>
        <time>2012-02-20T16:49:29Z</time>
      </trkpt>
      <trkpt lat="59.9815789" lon="17.7384847">
        <ele>43.8773</ele>
        <time>2012-02-20T16:49:36Z</time>
      </trkpt>
      <trkpt lat="59.9815137" lon="17.7385177">
        <ele>44.8386</ele>
        <time>2012-02-20T16:49:39Z</time>
      </trkpt>
      <trkpt lat="59.9814413" lon="17.7385446">
        <ele>44.358</ele>
        <time>2012-02-20T16:49:44Z</time>
      </trkpt>
      <trkpt lat="59.9814185" lon="17.7385473">
        <ele>43.8773</ele>
        <time>2012-02-20T16:49:46Z</time>
      </trkpt>
      <trkpt lat="59.9813296" lon="17.7385913">
        <ele>43.3966</ele>
        <time>2012-02-20T16:49:52Z</time>
      </trkpt>
      <trkpt lat="59.981304" lon="17.7386027">
        <ele>43.8773</ele>
        <time>2012-02-20T16:49:54Z</time>
      </trkpt>
      <trkpt lat="59.9812116" lon="17.738638">
        <ele>42.4354</ele>
        <time>2012-02-20T16:50:00Z</time>
      </trkpt>
      <trkpt lat="59.9811324" lon="17.7386819">
        <ele>43.8773</ele>
        <time>2012-02-20T16:50:04Z</time>
      </trkpt>
      <trkpt lat="59.9810341" lon="17.7387079">
        <ele>43.8773</ele>
        <time>2012-02-20T16:50:10Z</time>
      </trkpt>
      <trkpt lat="59.9809049" lon="17.7387398">
        <ele>42.916</ele>
        <time>2012-02-20T16:50:18Z</time>
      </trkpt>
      <trkpt lat="59.9808226" lon="17.738757">
        <ele>42.4354</ele>
        <time>2012-02-20T16:50:23Z</time>
      </trkpt>
      <trkpt lat="59.9807289" lon="17.7387959">
        <ele>41.9547</ele>
        <time>2012-02-20T16:50:29Z</time>
      </trkpt>
      <trkpt lat="59.9806797" lon="17.7388021">
        <ele>41.474</ele>
        <time>2012-02-20T16:50:32Z</time>
      </trkpt>
      <trkpt lat="59.9805869" lon="17.7387974">
        <ele>38.5901</ele>
        <time>2012-02-20T16:50:39Z</time>
      </trkpt>
      <trkpt lat="59.9805413" lon="17.7388052">
        <ele>38.5901</ele>
        <time>2012-02-20T16:50:42Z</time>
      </trkpt>
      <trkpt lat="59.9804177" lon="17.7388441">
        <ele>39.0707</ele>
        <time>2012-02-20T16:50:50Z</time>
      </trkpt>
      <trkpt lat="59.9803058" lon="17.7388635">
        <ele>39.5513</ele>
        <time>2012-02-20T16:50:57Z</time>
      </trkpt>
      <trkpt lat="59.9802192" lon="17.7388694">
        <ele>40.0321</ele>
        <time>2012-02-20T16:51:03Z</time>
      </trkpt>
      <trkpt lat="59.9801155" lon="17.7388755">
        <ele>41.9547</ele>
        <time>2012-02-20T16:51:09Z</time>
      </trkpt>
      <trkpt lat="59.980001" lon="17.7388979">
        <ele>45.7999</ele>
        <time>2012-02-20T16:51:15Z</time>
      </trkpt>
      <trkpt lat="59.9798932" lon="17.7388793">
        <ele>43.8773</ele>
        <time>2012-02-20T16:51:23Z</time>
      </trkpt>
      <trkpt lat="59.9798077" lon="17.7388746">
        <ele>41.474</ele>
        <time>2012-02-20T16:51:30Z</time>
      </trkpt>
      <trkpt lat="59.9797018" lon="17.7389012">
        <ele>39.5513</ele>
        <time>2012-02-20T16:51:38Z</time>
      </trkpt>
      <trkpt lat="59.9796099" lon="17.7389461">
        <ele>39.0707</ele>
        <time>2012-02-20T16:51:45Z</time>
      </trkpt>
      <trkpt lat="59.9794909" lon="17.7389793">
        <ele>36.6675</ele>
        <time>2012-02-20T16:51:54Z</time>
      </trkpt>
      <trkpt lat="59.9794344" lon="17.7390128">
        <ele>36.6675</ele>
        <time>2012-02-20T16:51:58Z</time>
      </trkpt>
      <trkpt lat="59.9793753" lon="17.739068">
        <ele>37.1481</ele>
        <time>2012-02-20T16:52:03Z</time>
      </trkpt>
      <trkpt lat="59.9792522" lon="17.7391596">
        <ele>35.7061</ele>
        <time>2012-02-20T16:52:11Z</time>
      </trkpt>
      <trkpt lat="59.9791385" lon="17.7392268">
        <ele>34.7449</ele>
        <time>2012-02-20T16:52:19Z</time>
      </trkpt>
      <trkpt lat="59.9790351" lon="17.7392636">
        <ele>32.3416</ele>
        <time>2012-02-20T16:52:26Z</time>
      </trkpt>
      <trkpt lat="59.9788932" lon="17.7393246">
        <ele>30.8995</ele>
        <time>2012-02-20T16:52:36Z</time>
      </trkpt>
      <trkpt lat="59.9787913" lon="17.7393441">
        <ele>29.9381</ele>
        <time>2012-02-20T16:52:43Z</time>
      </trkpt>
      <trkpt lat="59.978706" lon="17.7393413">
        <ele>30.4188</ele>
        <time>2012-02-20T16:52:49Z</time>
      </trkpt>
      <trkpt lat="59.978633" lon="17.7393148">
        <ele>30.4188</ele>
        <time>2012-02-20T16:52:55Z</time>
      </trkpt>
      <trkpt lat="59.9785513" lon="17.7393056">
        <ele>30.8995</ele>
        <time>2012-02-20T16:53:00Z</time>
      </trkpt>
      <trkpt lat="59.9785252" lon="17.7393129">
        <ele>30.8995</ele>
        <time>2012-02-20T16:53:01Z</time>
      </trkpt>
      <trkpt lat="59.9784455" lon="17.739306">
        <ele>31.8607</ele>
        <time>2012-02-20T16:53:06Z</time>
      </trkpt>
      <trkpt lat="59.9783615" lon="17.7392807">
        <ele>32.8223</ele>
        <time>2012-02-20T16:53:12Z</time>
      </trkpt>
      <trkpt lat="59.9782823" lon="17.7392449">
        <ele>33.7834</ele>
        <time>2012-02-20T16:53:18Z</time>
      </trkpt>
      <trkpt lat="59.978191" lon="17.7392103">
        <ele>34.2642</ele>
        <time>2012-02-20T16:53:24Z</time>
      </trkpt>
      <trkpt lat="59.9780838" lon="17.7391614">
        <ele>32.3416</ele>
        <time>2012-02-20T16:53:32Z</time>
      </trkpt>
      <trkpt lat="59.977991" lon="17.7391207">
        <ele>31.8607</ele>
        <time>2012-02-20T16:53:39Z</time>
      </trkpt>
      <trkpt lat="59.9778616" lon="17.7390881">
        <ele>32.8223</ele>
        <time>2012-02-20T16:53:47Z</time>
      </trkpt>
      <trkpt lat="59.9777079" lon="17.739086">
        <ele>35.2255</ele>
        <time>2012-02-20T16:53:56Z</time>
      </trkpt>
      <trkpt lat="59.9776933" lon="17.7390777">
        <ele>35.2255</ele>
        <time>2012-02-20T16:53:57Z</time>
      </trkpt>
      <trkpt lat="59.9775989" lon="17.7390939">
        <ele>36.6675</ele>
        <time>2012-02-20T16:54:02Z</time>
      </trkpt>
      <trkpt lat="59.9774741" lon="17.7391118">
        <ele>33.7834</ele>
        <time>2012-02-20T16:54:10Z</time>
      </trkpt>
      <trkpt lat="59.9774026" lon="17.7391326">
        <ele>28.0155</ele>
        <time>2012-02-20T16:54:16Z</time>
      </trkpt>
      <trkpt lat="59.9773318" lon="17.7391407">
        <ele>23.6896</ele>
        <time>2012-02-20T16:54:22Z</time>
      </trkpt>
      <trkpt lat="59.9772546" lon="17.7391612">
        <ele>19.8444</ele>
        <time>2012-02-20T16:54:28Z</time>
      </trkpt>
      <trkpt lat="59.9771577" lon="17.7392092">
        <ele>18.8831</ele>
        <time>2012-02-20T16:54:35Z</time>
      </trkpt>
      <trkpt lat="59.977047" lon="17.7392624">
        <ele>19.3638</ele>
        <time>2012-02-20T16:54:43Z</time>
      </trkpt>
      <trkpt lat="59.9769324" lon="17.7393169">
        <ele>18.8831</ele>
        <time>2012-02-20T16:54:51Z</time>
      </trkpt>
      <trkpt lat="59.9768377" lon="17.7393461">
        <ele>19.8444</ele>
        <time>2012-02-20T16:54:57Z</time>
      </trkpt>
      <trkpt lat="59.9767568" lon="17.7393943">
        <ele>20.325</ele>
        <time>2012-02-20T16:55:02Z</time>
      </trkpt>
      <trkpt lat="59.9766883" lon="17.7394235">
        <ele>21.767</ele>
        <time>2012-02-20T16:55:06Z</time>
      </trkpt>
      <trkpt lat="59.9765947" lon="17.7394859">
        <ele>23.6896</ele>
        <time>2012-02-20T16:55:11Z</time>
      </trkpt>
      <trkpt lat="59.976544" lon="17.739495">
        <ele>25.1317</ele>
        <time>2012-02-20T16:55:14Z</time>
      </trkpt>
      <trkpt lat="59.97646" lon="17.7395828">
        <ele>25.6123</ele>
        <time>2012-02-20T16:55:20Z</time>
      </trkpt>
      <trkpt lat="59.9763907" lon="17.7396806">
        <ele>24.1703</ele>
        <time>2012-02-20T16:55:28Z</time>
      </trkpt>
      <trkpt lat="59.9763745" lon="17.7397647">
        <ele>18.8831</ele>
        <time>2012-02-20T16:55:35Z</time>
      </trkpt>
      <trkpt lat="59.9763668" lon="17.7398004">
        <ele>18.8831</ele>
        <time>2012-02-20T16:55:36Z</time>
      </trkpt>
      <trkpt lat="59.9763315" lon="17.7399775">
        <ele>17.4412</ele>
        <time>2012-02-20T16:55:43Z</time>
      </trkpt>
      <trkpt lat="59.9763165" lon="17.7401661">
        <ele>17.9218</ele>
        <time>2012-02-20T16:55:49Z</time>
      </trkpt>
      <trkpt lat="59.9762712" lon="17.7404158">
        <ele>21.2864</ele>
        <time>2012-02-20T16:55:57Z</time>
      </trkpt>
      <trkpt lat="59.976242" lon="17.7405095">
        <ele>22.7283</ele>
        <time>2012-02-20T16:56:00Z</time>
      </trkpt>
      <trkpt lat="59.9761973" lon="17.740594">
        <ele>22.7283</ele>
        <time>2012-02-20T16:56:05Z</time>
      </trkpt>
      <trkpt lat="59.9761559" lon="17.7407396">
        <ele>22.2476</ele>
        <time>2012-02-20T16:56:11Z</time>
      </trkpt>
      <trkpt lat="59.9761198" lon="17.7408916">
        <ele>21.767</ele>
        <time>2012-02-20T16:56:16Z</time>
      </trkpt>
      <trkpt lat="59.9760901" lon="17.7410596">
        <ele>20.8057</ele>
        <time>2012-02-20T16:56:22Z</time>
      </trkpt>
      <trkpt lat="59.9760555" lon="17.741216">
        <ele>20.325</ele>
        <time>2012-02-20T16:56:28Z</time>
      </trkpt>
      <trkpt lat="59.9760053" lon="17.7414315">
        <ele>21.767</ele>
        <time>2012-02-20T16:56:36Z</time>
      </trkpt>
      <trkpt lat="59.9759405" lon="17.741681">
        <ele>24.651</ele>
        <time>2012-02-20T16:56:45Z</time>
      </trkpt>
      <trkpt lat="59.975924" lon="17.7418128">
        <ele>25.1317</ele>
        <time>2012-02-20T16:56:49Z</time>
      </trkpt>
      <trkpt lat="59.9758631" lon="17.7420258">
        <ele>26.5736</ele>
        <time>2012-02-20T16:56:57Z</time>
      </trkpt>
      <trkpt lat="59.9758266" lon="17.7421495">
        <ele>28.0155</ele>
        <time>2012-02-20T16:57:02Z</time>
      </trkpt>
      <trkpt lat="59.975805" lon="17.7422075">
        <ele>29.4575</ele>
        <time>2012-02-20T16:57:04Z</time>
      </trkpt>
      <trkpt lat="59.9757618" lon="17.7424437">
        <ele>29.4575</ele>
        <time>2012-02-20T16:57:13Z</time>
      </trkpt>
      <trkpt lat="59.9757187" lon="17.7426255">
        <ele>29.4575</ele>
        <time>2012-02-20T16:57:20Z</time>
      </trkpt>
      <trkpt lat="59.9756589" lon="17.7428057">
        <ele>32.3416</ele>
        <time>2012-02-20T16:57:26Z</time>
      </trkpt>
      <trkpt lat="59.9756166" lon="17.7429483">
        <ele>30.4188</ele>
        <time>2012-02-20T16:57:32Z</time>
      </trkpt>
      <trkpt lat="59.9755655" lon="17.7431209">
        <ele>31.3801</ele>
        <time>2012-02-20T16:57:39Z</time>
      </trkpt>
      <trkpt lat="59.9755177" lon="17.7432895">
        <ele>33.3029</ele>
        <time>2012-02-20T16:57:45Z</time>
      </trkpt>
      <trkpt lat="59.9754763" lon="17.7434445">
        <ele>32.8223</ele>
        <time>2012-02-20T16:57:51Z</time>
      </trkpt>
      <trkpt lat="59.9754342" lon="17.7436278">
        <ele>34.2642</ele>
        <time>2012-02-20T16:57:57Z</time>
      </trkpt>
      <trkpt lat="59.9753943" lon="17.7438206">
        <ele>35.2255</ele>
        <time>2012-02-20T16:58:03Z</time>
      </trkpt>
      <trkpt lat="59.9753878" lon="17.74391">
        <ele>35.2255</ele>
        <time>2012-02-20T16:58:06Z</time>
      </trkpt>
      <trkpt lat="59.9753538" lon="17.7440932">
        <ele>37.6287</ele>
        <time>2012-02-20T16:58:13Z</time>
      </trkpt>
      <trkpt lat="59.9753333" lon="17.7441937">
        <ele>38.5901</ele>
        <time>2012-02-20T16:58:17Z</time>
      </trkpt>
      <trkpt lat="59.9752986" lon="17.7443899">
        <ele>38.1094</ele>
        <time>2012-02-20T16:58:24Z</time>
      </trkpt>
      <trkpt lat="59.9752779" lon="17.7445084">
        <ele>37.1481</ele>
        <time>2012-02-20T16:58:29Z</time>
      </trkpt>
      <trkpt lat="59.9752742" lon="17.7445329">
        <ele>37.1481</ele>
        <time>2012-02-20T16:58:30Z</time>
      </trkpt>
      <trkpt lat="59.9752307" lon="17.7447199">
        <ele>37.1481</ele>
        <time>2012-02-20T16:58:37Z</time>
      </trkpt>
      <trkpt lat="59.9751919" lon="17.7448374">
        <ele>37.1481</ele>
        <time>2012-02-20T16:58:42Z</time>
      </trkpt>
      <trkpt lat="59.9751464" lon="17.7450092">
        <ele>36.6675</ele>
        <time>2012-02-20T16:58:48Z</time>
      </trkpt>
      <trkpt lat="59.9751003" lon="17.7451763">
        <ele>35.2255</ele>
        <time>2012-02-20T16:58:55Z</time>
      </trkpt>
      <trkpt lat="59.9750461" lon="17.7453317">
        <ele>36.6675</ele>
        <time>2012-02-20T16:59:01Z</time>
      </trkpt>
      <trkpt lat="59.974992" lon="17.7454471">
        <ele>37.1481</ele>
        <time>2012-02-20T16:59:06Z</time>
      </trkpt>
      <trkpt lat="59.9749356" lon="17.7455698">
        <ele>37.1481</ele>
        <time>2012-02-20T16:59:12Z</time>
      </trkpt>
      <trkpt lat="59.9749163" lon="17.745618">
        <ele>36.6675</ele>
        <time>2012-02-20T16:59:14Z</time>
      </trkpt>
      <trkpt lat="59.974855" lon="17.7457657">
        <ele>36.1868</ele>
        <time>2012-02-20T16:59:20Z</time>
      </trkpt>
      <trkpt lat="59.9747928" lon="17.7459183">
        <ele>36.1868</ele>
        <time>2012-02-20T16:59:27Z</time>
      </trkpt>
      <trkpt lat="59.9747071" lon="17.7460501">
        <ele>34.7449</ele>
        <time>2012-02-20T16:59:34Z</time>
      </trkpt>
      <trkpt lat="59.9746164" lon="17.7461517">
        <ele>34.7449</ele>
        <time>2012-02-20T16:59:40Z</time>
      </trkpt>
      <trkpt lat="59.9745685" lon="17.7462189">
        <ele>34.2642</ele>
        <time>2012-02-20T16:59:44Z</time>
      </trkpt>
      <trkpt lat="59.9745056" lon="17.7462928">
        <ele>33.3029</ele>
        <time>2012-02-20T16:59:49Z</time>
      </trkpt>
      <trkpt lat="59.9744386" lon="17.746377">
        <ele>32.3416</ele>
        <time>2012-02-20T16:59:54Z</time>
      </trkpt>
      <trkpt lat="59.9743486" lon="17.7464898">
        <ele>32.3416</ele>
        <time>2012-02-20T17:00:01Z</time>
      </trkpt>
      <trkpt lat="59.9742688" lon="17.7465893">
        <ele>33.3029</ele>
        <time>2012-02-20T17:00:07Z</time>
      </trkpt>
      <trkpt lat="59.9742449" lon="17.7466184">
        <ele>33.7834</ele>
        <time>2012-02-20T17:00:09Z</time>
      </trkpt>
      <trkpt lat="59.9741983" lon="17.7466563">
        <ele>32.3416</ele>
        <time>2012-02-20T17:00:13Z</time>
      </trkpt>
      <trkpt lat="59.9741296" lon="17.7467443">
        <ele>31.8607</ele>
        <time>2012-02-20T17:00:19Z</time>
      </trkpt>
      <trkpt lat="59.9740377" lon="17.7468737">
        <ele>32.8223</ele>
        <time>2012-02-20T17:00:26Z</time>
      </trkpt>
      <trkpt lat="59.9739496" lon="17.746983">
        <ele>30.8995</ele>
        <time>2012-02-20T17:00:33Z</time>
      </trkpt>
      <trkpt lat="59.9738426" lon="17.7471089">
        <ele>28.9769</ele>
        <time>2012-02-20T17:00:41Z</time>
      </trkpt>
      <trkpt lat="59.9737819" lon="17.7471792">
        <ele>26.0929</ele>
        <time>2012-02-20T17:00:48Z</time>
      </trkpt>
      <trkpt lat="59.9737584" lon="17.7472001">
        <ele>26.0929</ele>
        <time>2012-02-20T17:00:50Z</time>
      </trkpt>
      <trkpt lat="59.9736967" lon="17.747295">
        <ele>25.1317</ele>
        <time>2012-02-20T17:00:55Z</time>
      </trkpt>
      <trkpt lat="59.9736005" lon="17.7473917">
        <ele>25.1317</ele>
        <time>2012-02-20T17:01:02Z</time>
      </trkpt>
      <trkpt lat="59.9734933" lon="17.7475052">
        <ele>26.5736</ele>
        <time>2012-02-20T17:01:09Z</time>
      </trkpt>
      <trkpt lat="59.9733592" lon="17.7476507">
        <ele>28.0155</ele>
        <time>2012-02-20T17:01:18Z</time>
      </trkpt>
      <trkpt lat="59.9732742" lon="17.7477433">
        <ele>27.0543</ele>
        <time>2012-02-20T17:01:25Z</time>
      </trkpt>
      <trkpt lat="59.9731943" lon="17.7478011">
        <ele>28.9769</ele>
        <time>2012-02-20T17:01:31Z</time>
      </trkpt>
      <trkpt lat="59.9731073" lon="17.7479033">
        <ele>28.9769</ele>
        <time>2012-02-20T17:01:37Z</time>
      </trkpt>
      <trkpt lat="59.9730261" lon="17.748006">
        <ele>28.9769</ele>
        <time>2012-02-20T17:01:44Z</time>
      </trkpt>
      <trkpt lat="59.9729438" lon="17.7481582">
        <ele>28.9769</ele>
        <time>2012-02-20T17:01:52Z</time>
      </trkpt>
      <trkpt lat="59.9728877" lon="17.7482474">
        <ele>28.0155</ele>
        <time>2012-02-20T17:01:57Z</time>
      </trkpt>
      <trkpt lat="59.9728449" lon="17.7483501">
        <ele>26.5736</ele>
        <time>2012-02-20T17:02:01Z</time>
      </trkpt>
      <trkpt lat="59.9728267" lon="17.7484097">
        <ele>25.6123</ele>
        <time>2012-02-20T17:02:04Z</time>
      </trkpt>
      <trkpt lat="59.9728014" lon="17.7484372">
        <ele>25.1317</ele>
        <time>2012-02-20T17:02:06Z</time>
      </trkpt>
      <trkpt lat="59.9727612" lon="17.7485372">
        <ele>22.2476</ele>
        <time>2012-02-20T17:02:14Z</time>
      </trkpt>
      <trkpt lat="59.9727531" lon="17.748473">
        <ele>20.8057</ele>
        <time>2012-02-20T17:02:17Z</time>
      </trkpt>
      <trkpt lat="59.972793" lon="17.7483246">
        <ele>19.8444</ele>
        <time>2012-02-20T17:02:24Z</time>
      </trkpt>
      <trkpt lat="59.9728299" lon="17.7482646">
        <ele>19.8444</ele>
        <time>2012-02-20T17:02:27Z</time>
      </trkpt>
      <trkpt lat="59.9728796" lon="17.7481813">
        <ele>20.325</ele>
        <time>2012-02-20T17:02:31Z</time>
      </trkpt>
      <trkpt lat="59.9729209" lon="17.7480677">
        <ele>20.325</ele>
        <time>2012-02-20T17:02:37Z</time>
      </trkpt>
      <trkpt lat="59.9729307" lon="17.7480522">
        <ele>20.325</ele>
        <time>2012-02-20T17:02:38Z</time>
      </trkpt>
      <trkpt lat="59.9729876" lon="17.7479605">
        <ele>20.325</ele>
        <time>2012-02-20T17:02:43Z</time>
      </trkpt>
      <trkpt lat="59.9730344" lon="17.7478391">
        <ele>23.209</ele>
        <time>2012-02-20T17:02:50Z</time>
      </trkpt>
      <trkpt lat="59.973098" lon="17.7477383">
        <ele>25.6123</ele>
        <time>2012-02-20T17:02:57Z</time>
      </trkpt>
      <trkpt lat="59.9731763" lon="17.7476565">
        <ele>28.4962</ele>
        <time>2012-02-20T17:03:03Z</time>
      </trkpt>
      <trkpt lat="59.9732525" lon="17.7475566">
        <ele>28.4962</ele>
        <time>2012-02-20T17:03:09Z</time>
      </trkpt>
      <trkpt lat="59.9733346" lon="17.7474628">
        <ele>30.8995</ele>
        <time>2012-02-20T17:03:16Z</time>
      </trkpt>
      <trkpt lat="59.9734005" lon="17.7473843">
        <ele>31.8607</ele>
        <time>2012-02-20T17:03:21Z</time>
      </trkpt>
      <trkpt lat="59.9734601" lon="17.747316">
        <ele>34.2642</ele>
        <time>2012-02-20T17:03:26Z</time>
      </trkpt>
      <trkpt lat="59.9735498" lon="17.7472556">
        <ele>35.2255</ele>
        <time>2012-02-20T17:03:33Z</time>
      </trkpt>
      <trkpt lat="59.9735767" lon="17.7472346">
        <ele>35.7061</ele>
        <time>2012-02-20T17:03:35Z</time>
      </trkpt>
      <trkpt lat="59.9736596" lon="17.7471359">
        <ele>34.7449</ele>
        <time>2012-02-20T17:03:43Z</time>
      </trkpt>
      <trkpt lat="59.9737305" lon="17.7470411">
        <ele>35.2255</ele>
        <time>2012-02-20T17:03:49Z</time>
      </trkpt>
      <trkpt lat="59.9738047" lon="17.7469722">
        <ele>33.7834</ele>
        <time>2012-02-20T17:03:54Z</time>
      </trkpt>
      <trkpt lat="59.9738521" lon="17.7469085">
        <ele>34.2642</ele>
        <time>2012-02-20T17:03:58Z</time>
      </trkpt>
      <trkpt lat="59.9739145" lon="17.7468174">
        <ele>34.7449</ele>
        <time>2012-02-20T17:04:05Z</time>
      </trkpt>
      <trkpt lat="59.9739466" lon="17.7467846">
        <ele>34.7449</ele>
        <time>2012-02-20T17:04:07Z</time>
      </trkpt>
      <trkpt lat="59.9740552" lon="17.7466451">
        <ele>33.7834</ele>
        <time>2012-02-20T17:04:16Z</time>
      </trkpt>
      <trkpt lat="59.9741184" lon="17.7465246">
        <ele>36.6675</ele>
        <time>2012-02-20T17:04:23Z</time>
      </trkpt>
      <trkpt lat="59.9741845" lon="17.746412">
        <ele>36.1868</ele>
        <time>2012-02-20T17:04:29Z</time>
      </trkpt>
      <trkpt lat="59.9742631" lon="17.7463329">
        <ele>33.7834</ele>
        <time>2012-02-20T17:04:35Z</time>
      </trkpt>
      <trkpt lat="59.9743676" lon="17.7462159">
        <ele>35.7061</ele>
        <time>2012-02-20T17:04:43Z</time>
      </trkpt>
      <trkpt lat="59.9744351" lon="17.7461067">
        <ele>35.7061</ele>
        <time>2012-02-20T17:04:50Z</time>
      </trkpt>
      <trkpt lat="59.9745174" lon="17.7459738">
        <ele>34.2642</ele>
        <time>2012-02-20T17:04:58Z</time>
      </trkpt>
      <trkpt lat="59.9745768" lon="17.7458392">
        <ele>34.7449</ele>
        <time>2012-02-20T17:05:05Z</time>
      </trkpt>
      <trkpt lat="59.9746362" lon="17.7457072">
        <ele>35.2255</ele>
        <time>2012-02-20T17:05:12Z</time>
      </trkpt>
      <trkpt lat="59.974668" lon="17.745648">
        <ele>35.2255</ele>
        <time>2012-02-20T17:05:15Z</time>
      </trkpt>
      <trkpt lat="59.9747154" lon="17.7455331">
        <ele>35.2255</ele>
        <time>2012-02-20T17:05:21Z</time>
      </trkpt>
      <trkpt lat="59.9747692" lon="17.7454087">
        <ele>34.2642</ele>
        <time>2012-02-20T17:05:27Z</time>
      </trkpt>
      <trkpt lat="59.9748432" lon="17.7452574">
        <ele>30.8995</ele>
        <time>2012-02-20T17:05:34Z</time>
      </trkpt>
      <trkpt lat="59.9748907" lon="17.7451509">
        <ele>29.4575</ele>
        <time>2012-02-20T17:05:39Z</time>
      </trkpt>
      <trkpt lat="59.9749377" lon="17.7449908">
        <ele>30.8995</ele>
        <time>2012-02-20T17:05:46Z</time>
      </trkpt>
      <trkpt lat="59.9750033" lon="17.7448033">
        <ele>32.3416</ele>
        <time>2012-02-20T17:05:54Z</time>
      </trkpt>
      <trkpt lat="59.9750199" lon="17.7447603">
        <ele>32.8223</ele>
        <time>2012-02-20T17:05:56Z</time>
      </trkpt>
      <trkpt lat="59.9750477" lon="17.7446431">
        <ele>32.8223</ele>
        <time>2012-02-20T17:06:01Z</time>
      </trkpt>
      <trkpt lat="59.9751155" lon="17.7444577">
        <ele>32.8223</ele>
        <time>2012-02-20T17:06:09Z</time>
      </trkpt>
      <trkpt lat="59.9751537" lon="17.7443187">
        <ele>33.3029</ele>
        <time>2012-02-20T17:06:15Z</time>
      </trkpt>
      <trkpt lat="59.9752047" lon="17.744092">
        <ele>33.7834</ele>
        <time>2012-02-20T17:06:24Z</time>
      </trkpt>
      <trkpt lat="59.9752482" lon="17.7438548">
        <ele>32.8223</ele>
        <time>2012-02-20T17:06:33Z</time>
      </trkpt>
      <trkpt lat="59.9752897" lon="17.7436819">
        <ele>32.8223</ele>
        <time>2012-02-20T17:06:40Z</time>
      </trkpt>
      <trkpt lat="59.9753205" lon="17.7434942">
        <ele>31.8607</ele>
        <time>2012-02-20T17:06:47Z</time>
      </trkpt>
      <trkpt lat="59.9753624" lon="17.7432713">
        <ele>31.8607</ele>
        <time>2012-02-20T17:06:56Z</time>
      </trkpt>
      <trkpt lat="59.975408" lon="17.7430488">
        <ele>32.3416</ele>
        <time>2012-02-20T17:07:05Z</time>
      </trkpt>
      <trkpt lat="59.9754483" lon="17.7428812">
        <ele>32.3416</ele>
        <time>2012-02-20T17:07:12Z</time>
      </trkpt>
      <trkpt lat="59.9754883" lon="17.7427297">
        <ele>31.8607</ele>
        <time>2012-02-20T17:07:18Z</time>
      </trkpt>
      <trkpt lat="59.9755405" lon="17.742558">
        <ele>32.3416</ele>
        <time>2012-02-20T17:07:25Z</time>
      </trkpt>
      <trkpt lat="59.9755909" lon="17.7423861">
        <ele>31.3801</ele>
        <time>2012-02-20T17:07:32Z</time>
      </trkpt>
      <trkpt lat="59.975642" lon="17.7422262">
        <ele>30.4188</ele>
        <time>2012-02-20T17:07:39Z</time>
      </trkpt>
      <trkpt lat="59.9756612" lon="17.7421812">
        <ele>30.4188</ele>
        <time>2012-02-20T17:07:41Z</time>
      </trkpt>
      <trkpt lat="59.9756839" lon="17.7419854">
        <ele>28.9769</ele>
        <time>2012-02-20T17:07:49Z</time>
      </trkpt>
      <trkpt lat="59.9757374" lon="17.7417658">
        <ele>29.9381</ele>
        <time>2012-02-20T17:07:58Z</time>
      </trkpt>
      <trkpt lat="59.975745" lon="17.7417416">
        <ele>29.9381</ele>
        <time>2012-02-20T17:07:59Z</time>
      </trkpt>
      <trkpt lat="59.9757937" lon="17.7416052">
        <ele>29.9381</ele>
        <time>2012-02-20T17:08:05Z</time>
      </trkpt>
      <trkpt lat="59.9758466" lon="17.7414128">
        <ele>28.9769</ele>
        <time>2012-02-20T17:08:13Z</time>
      </trkpt>
      <trkpt lat="59.975897" lon="17.741206">
        <ele>28.0155</ele>
        <time>2012-02-20T17:08:21Z</time>
      </trkpt>
      <trkpt lat="59.9759433" lon="17.7410088">
        <ele>28.4962</ele>
        <time>2012-02-20T17:08:29Z</time>
      </trkpt>
      <trkpt lat="59.9759815" lon="17.7408313">
        <ele>28.4962</ele>
        <time>2012-02-20T17:08:36Z</time>
      </trkpt>
      <trkpt lat="59.9760414" lon="17.7406141">
        <ele>27.0543</ele>
        <time>2012-02-20T17:08:45Z</time>
      </trkpt>
      <trkpt lat="59.976085" lon="17.740482">
        <ele>28.0155</ele>
        <time>2012-02-20T17:08:51Z</time>
      </trkpt>
      <trkpt lat="59.9761294" lon="17.7403176">
        <ele>27.5349</ele>
        <time>2012-02-20T17:08:58Z</time>
      </trkpt>
      <trkpt lat="59.9761787" lon="17.7401505">
        <ele>28.4962</ele>
        <time>2012-02-20T17:09:05Z</time>
      </trkpt>
      <trkpt lat="59.9761928" lon="17.7401054">
        <ele>28.4962</ele>
        <time>2012-02-20T17:09:07Z</time>
      </trkpt>
      <trkpt lat="59.9762321" lon="17.7399882">
        <ele>27.0543</ele>
        <time>2012-02-20T17:09:12Z</time>
      </trkpt>
      <trkpt lat="59.9762429" lon="17.7399661">
        <ele>27.0543</ele>
        <time>2012-02-20T17:09:13Z</time>
      </trkpt>
      <trkpt lat="59.9762776" lon="17.7398614">
        <ele>27.5349</ele>
        <time>2012-02-20T17:09:18Z</time>
      </trkpt>
      <trkpt lat="59.9763052" lon="17.7397563">
        <ele>26.0929</ele>
        <time>2012-02-20T17:09:23Z</time>
      </trkpt>
      <trkpt lat="59.9763718" lon="17.7396258">
        <ele>27.0543</ele>
        <time>2012-02-20T17:09:30Z</time>
      </trkpt>
      <trkpt lat="59.9764016" lon="17.7395507">
        <ele>27.5349</ele>
        <time>2012-02-20T17:09:34Z</time>
      </trkpt>
      <trkpt lat="59.9765012" lon="17.7394373">
        <ele>27.5349</ele>
        <time>2012-02-20T17:09:42Z</time>
      </trkpt>
      <trkpt lat="59.9765537" lon="17.7393853">
        <ele>26.5736</ele>
        <time>2012-02-20T17:09:47Z</time>
      </trkpt>
      <trkpt lat="59.9766005" lon="17.7393549">
        <ele>27.5349</ele>
        <time>2012-02-20T17:09:52Z</time>
      </trkpt>
      <trkpt lat="59.9766806" lon="17.7393151">
        <ele>29.4575</ele>
        <time>2012-02-20T17:09:58Z</time>
      </trkpt>
      <trkpt lat="59.9767449" lon="17.7392964">
        <ele>30.4188</ele>
        <time>2012-02-20T17:10:03Z</time>
      </trkpt>
      <trkpt lat="59.9768469" lon="17.7392741">
        <ele>30.4188</ele>
        <time>2012-02-20T17:10:09Z</time>
      </trkpt>
      <trkpt lat="59.9769323" lon="17.739216">
        <ele>29.4575</ele>
        <time>2012-02-20T17:10:15Z</time>
      </trkpt>
      <trkpt lat="59.9770152" lon="17.7391719">
        <ele>30.8995</ele>
        <time>2012-02-20T17:10:21Z</time>
      </trkpt>
      <trkpt lat="59.9770613" lon="17.7391554">
        <ele>30.8995</ele>
        <time>2012-02-20T17:10:24Z</time>
      </trkpt>
      <trkpt lat="59.9771891" lon="17.7390998">
        <ele>32.8223</ele>
        <time>2012-02-20T17:10:32Z</time>
      </trkpt>
      <trkpt lat="59.9772888" lon="17.7390343">
        <ele>30.8995</ele>
        <time>2012-02-20T17:10:39Z</time>
      </trkpt>
      <trkpt lat="59.9773276" lon="17.7390218">
        <ele>30.8995</ele>
        <time>2012-02-20T17:10:44Z</time>
      </trkpt>
      <trkpt lat="59.9773981" lon="17.739003">
        <ele>31.8607</ele>
        <time>2012-02-20T17:10:50Z</time>
      </trkpt>
      <trkpt lat="59.9774343" lon="17.7389775">
        <ele>32.3416</ele>
        <time>2012-02-20T17:10:52Z</time>
      </trkpt>
      <trkpt lat="59.9775146" lon="17.7389735">
        <ele>32.8223</ele>
        <time>2012-02-20T17:10:57Z</time>
      </trkpt>
      <trkpt lat="59.97756" lon="17.7389663">
        <ele>32.8223</ele>
        <time>2012-02-20T17:11:00Z</time>
      </trkpt>
      <trkpt lat="59.977656" lon="17.7389442">
        <ele>32.8223</ele>
        <time>2012-02-20T17:11:07Z</time>
      </trkpt>
      <trkpt lat="59.977754" lon="17.7389327">
        <ele>33.7834</ele>
        <time>2012-02-20T17:11:14Z</time>
      </trkpt>
      <trkpt lat="59.9778467" lon="17.7389606">
        <ele>36.1868</ele>
        <time>2012-02-20T17:11:20Z</time>
      </trkpt>
      <trkpt lat="59.9779254" lon="17.7389886">
        <ele>35.7061</ele>
        <time>2012-02-20T17:11:25Z</time>
      </trkpt>
      <trkpt lat="59.9779944" lon="17.7390145">
        <ele>35.2255</ele>
        <time>2012-02-20T17:11:30Z</time>
      </trkpt>
      <trkpt lat="59.9780784" lon="17.7390726">
        <ele>34.7449</ele>
        <time>2012-02-20T17:11:36Z</time>
      </trkpt>
      <trkpt lat="59.9781466" lon="17.7391067">
        <ele>33.7834</ele>
        <time>2012-02-20T17:11:41Z</time>
      </trkpt>
      <trkpt lat="59.9782212" lon="17.7391355">
        <ele>34.2642</ele>
        <time>2012-02-20T17:11:46Z</time>
      </trkpt>
      <trkpt lat="59.9782985" lon="17.7391397">
        <ele>32.8223</ele>
        <time>2012-02-20T17:11:51Z</time>
      </trkpt>
      <trkpt lat="59.9783901" lon="17.7391456">
        <ele>32.3416</ele>
        <time>2012-02-20T17:11:57Z</time>
      </trkpt>
      <trkpt lat="59.9784261" lon="17.7391754">
        <ele>31.8607</ele>
        <time>2012-02-20T17:12:00Z</time>
      </trkpt>
      <trkpt lat="59.9785311" lon="17.7391912">
        <ele>30.4188</ele>
        <time>2012-02-20T17:12:07Z</time>
      </trkpt>
      <trkpt lat="59.9786482" lon="17.7392051">
        <ele>30.8995</ele>
        <time>2012-02-20T17:12:14Z</time>
      </trkpt>
      <trkpt lat="59.9787152" lon="17.7392403">
        <ele>28.9769</ele>
        <time>2012-02-20T17:12:20Z</time>
      </trkpt>
      <trkpt lat="59.9787812" lon="17.7392762">
        <ele>28.4962</ele>
        <time>2012-02-20T17:12:25Z</time>
      </trkpt>
      <trkpt lat="59.9788277" lon="17.7393151">
        <ele>26.5736</ele>
        <time>2012-02-20T17:12:30Z</time>
      </trkpt>
      <trkpt lat="59.9788671" lon="17.7392976">
        <ele>24.651</ele>
        <time>2012-02-20T17:12:34Z</time>
      </trkpt>
      <trkpt lat="59.978906" lon="17.7393987">
        <ele>27.5349</ele>
        <time>2012-02-20T17:12:39Z</time>
      </trkpt>
      <trkpt lat="59.9789469" lon="17.7395408">
        <ele>29.4575</ele>
        <time>2012-02-20T17:12:44Z</time>
      </trkpt>
      <trkpt lat="59.9789599" lon="17.7396801">
        <ele>29.9381</ele>
        <time>2012-02-20T17:12:48Z</time>
      </trkpt>
      <trkpt lat="59.9789474" lon="17.7398956">
        <ele>30.4188</ele>
        <time>2012-02-20T17:12:54Z</time>
      </trkpt>
      <trkpt lat="59.9788822" lon="17.73996">
        <ele>30.8995</ele>
        <time>2012-02-20T17:13:01Z</time>
      </trkpt>
    </trkseg>
  </trk>
</gpx>